Time;durP1;ratioP1;P1;durP2;ratioP2;P2;SDS_P1;SDS_P2;PMS_P1;PMS_P2;Temp;Humidity;BMP_temperature;BMP_pressure;BME280_temperature;BME280_humidity;BME280_pressure;Samples;Min_cycle;Max_cycle;Signal;HPM_P1;HPM_P2
2021/10/11 00:01:37;;;;;;;23.03;18.97;;;7.30;99.90;;;;;;5045924;28;20499;-89
2021/10/11 00:04:04;;;;;;;22.30;17.93;;;7.30;99.90;;;;;;5050056;28;20425;-86
2021/10/11 00:06:31;;;;;;;22.53;18.20;;;7.30;99.90;;;;;;5057850;28;20463;-87
2021/10/11 00:08:59;;;;;;;23.37;18.63;;;7.40;99.90;;;;;;5048302;28;20496;-88
2021/10/11 00:11:26;;;;;;;23.40;19.00;;;7.30;99.90;;;;;;5036598;28;20477;-88
2021/10/11 00:13:52;;;;;;;22.20;17.77;;;7.40;99.90;;;;;;5040325;28;20445;-89
2021/10/11 00:16:19;;;;;;;23.90;19.87;;;7.30;99.90;;;;;;5040455;28;20962;-88
2021/10/11 00:18:46;;;;;;;20.90;17.00;;;7.20;99.90;;;;;;5035301;28;20460;-87
2021/10/11 00:21:13;;;;;;;22.00;18.17;;;7.20;99.90;;;;;;5035040;28;20834;-88
2021/10/11 00:23:40;;;;;;;20.80;17.47;;;7.20;99.90;;;;;;5046557;28;20445;-88
2021/10/11 00:26:08;;;;;;;23.37;18.47;;;7.20;99.90;;;;;;5043066;28;20457;-89
2021/10/11 00:28:34;;;;;;;29.07;21.73;;;7.20;99.90;;;;;;5035973;28;20445;-88
2021/10/11 00:31:01;;;;;;;24.03;20.37;;;7.10;99.90;;;;;;5035463;28;20437;-88
2021/10/11 00:33:28;;;;;;;22.50;18.10;;;7.10;99.90;;;;;;5035297;28;20445;-87
2021/10/11 00:35:55;;;;;;;24.10;19.20;;;7.00;99.90;;;;;;5050779;28;20465;-87
2021/10/11 00:38:21;;;;;;;27.13;19.70;;;7.00;99.90;;;;;;5047218;28;20444;-88
2021/10/11 00:40:48;;;;;;;23.83;18.20;;;7.00;99.90;;;;;;5057892;28;20473;-88
2021/10/11 00:43:16;;;;;;;25.13;19.97;;;6.90;99.90;;;;;;5041919;28;20507;-88
2021/10/11 00:45:43;;;;;;;21.73;17.80;;;6.90;99.90;;;;;;5035223;28;20469;-88
2021/10/11 00:48:09;;;;;;;24.40;19.57;;;6.90;99.90;;;;;;5034408;28;20449;-88
2021/10/11 00:50:36;;;;;;;21.63;18.57;;;6.90;99.90;;;;;;5034813;28;20456;-89
2021/10/11 00:53:03;;;;;;;26.67;19.13;;;6.90;99.90;;;;;;5047990;28;20436;-88
2021/10/11 00:55:30;;;;;;;19.70;17.30;;;6.90;99.90;;;;;;5045840;28;20458;-89
2021/10/11 00:57:57;;;;;;;22.43;19.13;;;6.80;99.90;;;;;;5035283;28;20447;-88
2021/10/11 01:00:25;;;;;;;23.97;19.30;;;6.70;99.90;;;;;;5034399;28;20467;-88
2021/10/11 01:02:52;;;;;;;25.20;19.33;;;6.70;99.90;;;;;;5034007;28;20452;-89
2021/10/11 01:05:18;;;;;;;23.77;21.10;;;6.70;99.90;;;;;;5034106;28;20477;-89
2021/10/11 01:07:46;;;;;;;26.27;19.60;;;6.80;99.90;;;;;;5034542;28;20437;-89
2021/10/11 01:10:12;;;;;;;21.60;19.43;;;6.90;99.90;;;;;;5048148;28;20437;-86
2021/10/11 01:12:39;;;;;;;23.00;20.03;;;6.90;99.90;;;;;;5037771;28;20441;-88
2021/10/11 01:15:07;;;;;;;24.83;19.73;;;6.90;99.90;;;;;;5056680;28;20437;-87
2021/10/11 01:17:35;;;;;;;22.47;19.83;;;6.80;99.90;;;;;;5035322;28;20441;-88
2021/10/11 01:20:05;;;;;;;23.57;19.13;;;6.90;99.90;;;;;;5039115;28;20448;-88
2021/10/11 01:22:37;;;;;;;22.87;19.80;;;6.80;99.90;;;;;;5053070;28;20434;-87
2021/10/11 01:25:06;;;;;;;25.90;21.43;;;6.80;99.90;;;;;;5052819;28;20445;-87
2021/10/11 01:27:33;;;;;;;25.00;20.60;;;6.80;99.90;;;;;;5041838;28;20441;-88
2021/10/11 01:29:59;;;;;;;26.63;18.83;;;6.80;99.90;;;;;;5033708;28;20922;-88
2021/10/11 01:32:26;;;;;;;21.60;19.40;;;6.80;99.90;;;;;;5044995;28;20485;-88
2021/10/11 01:34:53;;;;;;;25.50;20.10;;;6.70;99.90;;;;;;5052656;28;20445;-88
2021/10/11 01:37:22;;;;;;;21.60;18.77;;;6.70;99.90;;;;;;5037961;28;20946;-88
2021/10/11 01:39:48;;;;;;;27.90;19.93;;;6.70;99.90;;;;;;5049458;28;20864;-88
2021/10/11 01:42:15;;;;;;;23.10;20.33;;;6.70;99.90;;;;;;5038304;28;20444;-88
2021/10/11 01:44:43;;;;;;;23.27;20.60;;;6.70;99.90;;;;;;5035068;28;20457;-87
2021/10/11 01:47:10;;;;;;;23.30;19.67;;;6.60;99.90;;;;;;5034387;28;20472;-88
2021/10/11 01:49:36;;;;;;;24.40;21.13;;;6.50;99.90;;;;;;5034856;28;20483;-88
2021/10/11 01:52:03;;;;;;;24.37;21.27;;;6.60;99.90;;;;;;5043079;28;20461;-87
2021/10/11 01:54:31;;;;;;;24.63;20.23;;;6.60;99.90;;;;;;5035494;28;20453;-87
2021/10/11 01:56:58;;;;;;;22.73;19.27;;;6.50;99.90;;;;;;5042568;28;20445;-87
2021/10/11 01:59:25;;;;;;;22.10;19.63;;;6.50;99.90;;;;;;5056939;28;20450;-87
2021/10/11 02:01:51;;;;;;;29.53;19.80;;;6.50;99.90;;;;;;5044723;28;20438;-88
2021/10/11 02:04:18;;;;;;;21.60;19.00;;;6.40;99.90;;;;;;5058083;28;20476;-86
2021/10/11 02:06:45;;;;;;;22.50;20.10;;;6.50;99.90;;;;;;5049629;28;20457;-88
2021/10/11 02:09:12;;;;;;;26.23;19.77;;;6.40;99.90;;;;;;5037348;28;20449;-89
2021/10/11 02:11:40;;;;;;;26.20;20.30;;;6.40;99.90;;;;;;5038347;28;20488;-86
2021/10/11 02:14:06;;;;;;;22.03;18.93;;;6.40;99.90;;;;;;5037747;28;20449;-88
2021/10/11 02:16:33;;;;;;;24.50;19.97;;;6.40;99.90;;;;;;5040594;28;20476;-88
2021/10/11 02:19:00;;;;;;;21.43;19.07;;;6.30;99.90;;;;;;5036737;28;20464;-88
2021/10/11 02:21:27;;;;;;;24.10;19.23;;;6.30;99.90;;;;;;5041949;28;20441;-88
2021/10/11 02:23:54;;;;;;;25.20;19.10;;;6.30;99.90;;;;;;5060800;28;20428;-87
2021/10/11 02:26:22;;;;;;;23.50;19.27;;;6.30;99.90;;;;;;5052567;28;20472;-89
2021/10/11 02:28:51;;;;;;;26.63;20.80;;;6.20;99.90;;;;;;5049998;28;20495;-88
2021/10/11 02:31:18;;;;;;;22.33;19.90;;;6.20;99.90;;;;;;5051231;28;20477;-87
2021/10/11 02:33:45;;;;;;;25.03;19.70;;;6.30;99.90;;;;;;5050945;28;20430;-88
2021/10/11 02:36:12;;;;;;;20.07;17.97;;;6.20;99.90;;;;;;5048820;28;20466;-88
2021/10/11 02:38:39;;;;;;;27.43;21.40;;;6.20;99.90;;;;;;5043005;28;20434;-89
2021/10/11 02:41:06;;;;;;;26.57;21.00;;;6.10;99.90;;;;;;5039191;28;20456;-88
2021/10/11 02:43:32;;;;;;;26.30;19.70;;;6.10;99.90;;;;;;5055516;28;20437;-85
2021/10/11 02:46:00;;;;;;;24.97;20.70;;;6.10;99.90;;;;;;5045740;28;21137;-88
2021/10/11 02:48:27;;;;;;;23.93;20.63;;;6.10;99.90;;;;;;5037322;28;20449;-88
2021/10/11 02:50:54;;;;;;;26.13;20.67;;;6.00;99.90;;;;;;5036269;28;20449;-88
2021/10/11 02:53:20;;;;;;;29.30;21.00;;;6.00;99.90;;;;;;5036938;28;20838;-88
2021/10/11 02:55:47;;;;;;;29.13;22.63;;;6.00;99.90;;;;;;5041440;28;20966;-88
2021/10/11 02:58:14;;;;;;;28.57;20.30;;;6.00;99.90;;;;;;5056239;28;20425;-86
2021/10/11 03:00:40;;;;;;;27.83;19.90;;;6.00;99.90;;;;;;5056394;28;20468;-88
2021/10/11 03:03:08;;;;;;;24.63;21.77;;;5.90;99.90;;;;;;5039342;28;20449;-88
2021/10/11 03:05:35;;;;;;;25.93;22.63;;;5.90;99.90;;;;;;5042134;28;20495;-87
2021/10/11 03:08:02;;;;;;;25.33;21.83;;;5.90;99.90;;;;;;5036423;28;20461;-87
2021/10/11 03:10:29;;;;;;;28.53;21.20;;;5.90;99.90;;;;;;5036903;28;20507;-90
2021/10/11 03:12:55;;;;;;;22.33;19.90;;;5.90;99.90;;;;;;5040361;28;20456;-87
2021/10/11 03:15:22;;;;;;;23.90;21.37;;;5.90;99.90;;;;;;5055728;28;20461;-88
2021/10/11 03:17:49;;;;;;;25.20;20.10;;;5.90;99.90;;;;;;5035701;28;20489;-88
2021/10/11 03:20:17;;;;;;;25.53;19.50;;;5.90;99.90;;;;;;5036578;28;20460;-89
2021/10/11 03:22:44;;;;;;;36.87;21.50;;;5.90;99.90;;;;;;5036480;28;20962;-88
2021/10/11 03:25:10;;;;;;;23.40;20.50;;;5.90;99.90;;;;;;5038248;28;20457;-87
2021/10/11 03:27:37;;;;;;;23.60;19.17;;;6.00;99.90;;;;;;5036876;28;20469;-89
2021/10/11 03:30:04;;;;;;;22.80;19.90;;;5.90;99.90;;;;;;5061102;22;20500;-89
2021/10/11 03:32:31;;;;;;;22.30;19.97;;;5.90;99.90;;;;;;5056828;28;20476;-89
2021/10/11 03:34:58;;;;;;;23.60;20.97;;;5.90;99.90;;;;;;5056569;28;20959;-89
2021/10/11 03:37:26;;;;;;;27.20;21.40;;;5.80;99.90;;;;;;5055611;28;20456;-88
2021/10/11 03:39:53;;;;;;;26.50;20.90;;;5.80;99.90;;;;;;5055877;28;20459;-89
2021/10/11 03:42:19;;;;;;;25.10;21.90;;;5.80;99.90;;;;;;5069487;28;20529;-89
2021/10/11 03:44:46;;;;;;;24.00;19.63;;;5.80;99.90;;;;;;5057381;28;20463;-86
2021/10/11 03:47:13;;;;;;;25.20;21.03;;;5.80;99.90;;;;;;5057189;28;20452;-86
2021/10/11 03:49:40;;;;;;;28.63;21.90;;;5.90;99.90;;;;;;5058955;28;20994;-86
2021/10/11 03:52:07;;;;;;;27.23;20.73;;;5.90;99.90;;;;;;5056250;28;20480;-87
2021/10/11 03:54:35;;;;;;;30.07;23.00;;;5.90;99.90;;;;;;5056108;28;20448;-87
2021/10/11 03:57:02;;;;;;;24.97;21.47;;;5.80;99.90;;;;;;5057398;28;20439;-87
2021/10/11 03:59:28;;;;;;;27.67;22.63;;;5.80;99.90;;;;;;5054688;28;20478;-88
2021/10/11 04:01:55;;;;;;;24.53;20.90;;;5.80;99.90;;;;;;5060224;28;20527;-87
2021/10/11 04:04:22;;;;;;;26.93;20.83;;;5.80;99.90;;;;;;5057549;28;20442;-87
2021/10/11 04:06:51;;;;;;;25.73;21.20;;;5.80;99.90;;;;;;5055904;28;20479;-87
2021/10/11 04:09:17;;;;;;;22.50;19.07;;;5.80;99.90;;;;;;5059965;28;20542;-88
2021/10/11 04:11:46;;;;;;;22.00;19.60;;;5.70;99.90;;;;;;5060351;28;20883;-88
2021/10/11 04:14:13;;;;;;;31.77;22.83;;;5.70;99.90;;;;;;5061422;28;20456;-86
2021/10/11 04:16:39;;;;;;;23.97;21.20;;;5.70;99.90;;;;;;5055663;28;20460;-87
2021/10/11 04:19:06;;;;;;;25.03;20.73;;;5.70;99.90;;;;;;5066244;28;20464;-86
2021/10/11 04:21:33;;;;;;;28.20;21.10;;;5.70;99.90;;;;;;5074089;28;20437;-87
2021/10/11 04:24:00;;;;;;;24.83;21.60;;;5.70;99.90;;;;;;5066608;28;20463;-88
2021/10/11 04:26:26;;;;;;;24.93;20.40;;;5.70;99.90;;;;;;5076804;28;20427;-86
2021/10/11 04:28:54;;;;;;;25.70;19.10;;;5.70;99.90;;;;;;5076593;28;20456;-87
2021/10/11 04:31:21;;;;;;;29.87;21.73;;;5.60;99.90;;;;;;5073753;28;20451;-87
2021/10/11 04:33:48;;;;;;;29.90;21.30;;;5.60;99.90;;;;;;5066838;28;20487;-88
2021/10/11 04:36:14;;;;;;;27.57;20.67;;;5.60;99.90;;;;;;5069653;28;20433;-88
2021/10/11 04:38:41;;;;;;;22.50;19.93;;;5.60;99.90;;;;;;5063650;28;20446;-87
2021/10/11 04:41:08;;;;;;;27.13;19.47;;;5.60;99.90;;;;;;5069632;28;20458;-88
2021/10/11 04:43:35;;;;;;;22.73;19.93;;;5.60;99.90;;;;;;5060574;28;20819;-87
2021/10/11 04:46:03;;;;;;;21.67;19.37;;;5.60;99.90;;;;;;5072152;28;20448;-88
2021/10/11 04:48:30;;;;;;;30.93;20.77;;;5.60;99.90;;;;;;5061845;28;20891;-87
2021/10/11 04:50:56;;;;;;;22.30;18.47;;;5.60;99.90;;;;;;5071706;28;20489;-87
2021/10/11 04:53:23;;;;;;;24.83;20.27;;;5.60;99.90;;;;;;5054290;28;20483;-87
2021/10/11 04:55:50;;;;;;;23.73;19.60;;;5.60;99.90;;;;;;5068051;28;20435;-88
2021/10/11 04:58:19;;;;;;;28.80;21.20;;;5.60;99.90;;;;;;5059343;28;20447;-87
2021/10/11 05:00:46;;;;;;;26.80;20.83;;;5.60;99.90;;;;;;5060919;28;20456;-88
2021/10/11 05:03:14;;;;;;;24.10;21.50;;;5.50;99.90;;;;;;5064580;28;20464;-88
2021/10/11 05:05:41;;;;;;;28.03;19.80;;;5.50;99.90;;;;;;5054833;28;20451;-87
2021/10/11 05:08:08;;;;;;;29.60;21.50;;;5.50;99.90;;;;;;5054977;28;20444;-88
2021/10/11 05:10:35;;;;;;;27.93;21.23;;;5.40;99.90;;;;;;5053287;28;20463;-88
2021/10/11 05:13:02;;;;;;;30.10;22.20;;;5.40;99.90;;;;;;5053748;28;20574;-88
2021/10/11 05:15:29;;;;;;;30.20;22.83;;;5.40;99.90;;;;;;5053798;28;20822;-89
2021/10/11 05:17:55;;;;;;;26.50;20.40;;;5.40;99.90;;;;;;5053316;28;20442;-88
2021/10/11 05:20:25;;;;;;;28.33;19.67;;;5.40;99.90;;;;;;5054117;28;20842;-88
2021/10/11 05:22:52;;;;;;;31.50;20.73;;;5.30;99.90;;;;;;5054972;28;20451;-87
2021/10/11 05:25:18;;;;;;;26.17;21.27;;;5.30;99.90;;;;;;5055240;28;20436;-88
2021/10/11 05:27:45;;;;;;;26.47;21.63;;;5.40;99.90;;;;;;5058825;28;20455;-87
2021/10/11 05:30:12;;;;;;;25.77;20.63;;;5.40;99.90;;;;;;5055134;28;20472;-88
2021/10/11 05:32:39;;;;;;;31.37;23.93;;;5.40;99.90;;;;;;5054723;28;20484;-88
2021/10/11 05:35:07;;;;;;;28.10;22.00;;;5.30;99.90;;;;;;5062972;28;20659;-87
2021/10/11 05:37:37;;;;;;;30.67;22.90;;;5.30;99.90;;;;;;5058027;28;20454;-87
2021/10/11 05:40:06;;;;;;;31.50;21.83;;;5.30;99.90;;;;;;5056272;28;20479;-87
2021/10/11 05:42:33;;;;;;;38.43;22.77;;;5.30;99.90;;;;;;5057533;28;20440;-87
2021/10/11 05:45:00;;;;;;;28.03;22.97;;;5.30;99.90;;;;;;5060328;28;20458;-87
2021/10/11 05:47:27;;;;;;;27.93;22.90;;;5.40;99.90;;;;;;5066859;28;20447;-87
2021/10/11 05:49:54;;;;;;;35.87;23.53;;;5.40;99.90;;;;;;5060537;28;20467;-88
2021/10/11 05:52:20;;;;;;;27.30;21.10;;;5.40;99.90;;;;;;5058013;28;21148;-88
2021/10/11 05:54:48;;;;;;;29.20;22.33;;;5.50;99.90;;;;;;5059109;28;20459;-88
2021/10/11 05:57:15;;;;;;;25.73;21.47;;;5.40;99.90;;;;;;5058841;28;20448;-88
2021/10/11 05:59:42;;;;;;;29.03;22.23;;;5.50;99.90;;;;;;5057710;28;20512;-87
2021/10/11 06:02:09;;;;;;;35.73;20.73;;;5.50;99.90;;;;;;5067835;28;20416;-87
2021/10/11 06:04:35;;;;;;;32.77;21.90;;;5.50;99.90;;;;;;5058355;28;20453;-88
2021/10/11 06:07:02;;;;;;;29.80;23.13;;;5.50;99.90;;;;;;5058142;28;20459;-88
2021/10/11 06:09:34;;;;;;;33.13;22.67;;;5.50;99.90;;;;;;5069773;28;20475;-89
2021/10/11 06:12:02;;;;;;;30.43;24.93;;;5.50;99.90;;;;;;5057448;28;20482;-87
2021/10/11 06:14:29;;;;;;;30.57;23.73;;;5.60;99.90;;;;;;5059126;28;20456;-89
2021/10/11 06:16:55;;;;;;;33.50;22.50;;;5.60;99.90;;;;;;5059848;28;20443;-87
2021/10/11 06:19:22;;;;;;;27.37;21.00;;;5.60;99.90;;;;;;5059740;28;20470;-89
2021/10/11 06:21:49;;;;;;;28.90;20.93;;;5.70;99.90;;;;;;5058057;28;20442;-87
2021/10/11 06:24:16;;;;;;;31.43;23.23;;;5.80;99.90;;;;;;5056918;28;20451;-89
2021/10/11 06:26:43;;;;;;;35.73;24.00;;;5.80;99.90;;;;;;5068514;28;20458;-87
2021/10/11 06:29:11;;;;;;;30.13;24.50;;;5.80;99.90;;;;;;5079815;28;20468;-86
2021/10/11 06:31:37;;;;;;;26.60;21.57;;;5.90;99.90;;;;;;5063152;28;20442;-87
2021/10/11 06:34:05;;;;;;;30.07;24.00;;;6.00;99.90;;;;;;5059478;28;20476;-87
2021/10/11 06:36:35;;;;;;;34.10;23.43;;;6.10;99.90;;;;;;5057581;28;20448;-87
2021/10/11 06:39:02;;;;;;;38.97;25.70;;;6.10;99.90;;;;;;5056491;28;20464;-88
2021/10/11 06:41:29;;;;;;;30.60;22.90;;;6.20;99.90;;;;;;5067330;28;20475;-86
2021/10/11 06:43:55;;;;;;;34.80;23.87;;;6.20;99.90;;;;;;5067612;28;20436;-88
2021/10/11 06:46:24;;;;;;;32.67;24.47;;;6.10;99.90;;;;;;5076437;28;20500;-87
2021/10/11 06:48:51;;;;;;;43.73;24.63;;;6.20;99.90;;;;;;5066733;28;20472;-88
2021/10/11 06:51:18;;;;;;;47.30;35.50;;;6.30;99.90;;;;;;5064052;28;20549;-87
2021/10/11 06:53:44;;;;;;;36.67;24.00;;;6.40;99.90;;;;;;5060493;28;20487;-88
2021/10/11 06:56:11;;;;;;;38.03;24.87;;;6.40;99.90;;;;;;5054368;28;20448;-87
2021/10/11 06:58:38;;;;;;;29.33;23.57;;;6.50;99.90;;;;;;5069259;28;20470;-87
2021/10/11 07:01:05;;;;;;;35.50;22.53;;;6.60;99.90;;;;;;5057765;28;20444;-89
2021/10/11 07:03:33;;;;;;;31.83;23.50;;;6.60;99.90;;;;;;5057880;28;20507;-87
2021/10/11 07:06:04;;;;;;;27.23;21.53;;;6.70;99.90;;;;;;5056862;28;20949;-87
2021/10/11 07:08:35;;;;;;;31.50;22.50;;;6.70;99.90;;;;;;5039823;28;21008;-88
2021/10/11 07:11:02;;;;;;;26.90;22.80;;;6.70;99.90;;;;;;5041313;28;20446;-87
2021/10/11 07:13:29;;;;;;;28.83;22.13;;;6.90;99.90;;;;;;5048415;28;20492;-88
2021/10/11 07:15:55;;;;;;;30.30;23.13;;;7.00;99.90;;;;;;5045267;28;20536;-87
2021/10/11 07:18:22;;;;;;;29.93;23.13;;;7.10;99.90;;;;;;5037400;28;20954;-86
2021/10/11 07:20:50;;;;;;;28.00;22.33;;;7.20;99.90;;;;;;5045367;28;20464;-86
2021/10/11 07:23:17;;;;;;;24.17;20.90;;;7.30;99.90;;;;;;5057861;28;20437;-87
2021/10/11 07:25:44;;;;;;;30.10;21.30;;;7.40;99.90;;;;;;5039447;28;20445;-88
2021/10/11 07:28:11;;;;;;;29.37;22.17;;;7.50;99.90;;;;;;5037899;28;20430;-87
2021/10/11 07:30:38;;;;;;;30.03;22.90;;;7.60;99.90;;;;;;5054533;28;20615;-88
2021/10/11 07:33:06;;;;;;;25.63;22.27;;;7.80;99.90;;;;;;5051894;28;20484;-88
2021/10/11 07:35:33;;;;;;;29.17;24.63;;;8.00;99.90;;;;;;5059270;28;20438;-88
2021/10/11 07:38:02;;;;;;;24.17;21.53;;;8.00;99.90;;;;;;5056350;28;20437;-88
2021/10/11 07:40:29;;;;;;;23.97;19.83;;;8.20;99.90;;;;;;5058563;28;20449;-85
2021/10/11 07:42:55;;;;;;;26.80;20.87;;;8.30;99.90;;;;;;5069316;28;20436;-86
2021/10/11 07:45:22;;;;;;;30.87;22.57;;;8.30;99.90;;;;;;5077101;28;20440;-88
2021/10/11 07:47:49;;;;;;;25.27;19.57;;;8.30;99.90;;;;;;5062110;28;20444;-89
2021/10/11 07:50:16;;;;;;;23.07;20.73;;;8.40;99.90;;;;;;5070984;28;20454;-86
2021/10/11 07:52:43;;;;;;;24.40;19.53;;;8.40;99.90;;;;;;5077667;28;20463;-88
2021/10/11 07:55:14;;;;;;;30.33;20.37;;;8.40;99.90;;;;;;5071479;28;20436;-88
2021/10/11 07:57:41;;;;;;;23.83;19.47;;;8.50;99.90;;;;;;5076128;28;20455;-88
2021/10/11 08:00:11;;;;;;;27.33;20.27;;;8.70;99.90;;;;;;5069666;28;20466;-88
2021/10/11 08:02:37;;;;;;;26.33;20.20;;;8.90;99.90;;;;;;5057727;28;20551;-88
2021/10/11 08:05:05;;;;;;;27.57;21.30;;;9.10;99.90;;;;;;5059840;28;20515;-81
2021/10/11 08:07:32;;;;;;;23.13;20.43;;;9.30;99.90;;;;;;5060544;28;20468;-81
2021/10/11 08:09:58;;;;;;;23.00;19.60;;;9.30;99.90;;;;;;5059305;28;20480;-81
2021/10/11 08:12:27;;;;;;;27.10;19.70;;;9.60;99.90;;;;;;5057674;28;20502;-89
2021/10/11 08:14:57;;;;;;;22.73;19.63;;;9.60;99.90;;;;;;5058141;28;20472;-87
2021/10/11 08:17:24;;;;;;;25.77;19.90;;;9.80;99.90;;;;;;5056407;28;20448;-87
2021/10/11 08:19:51;;;;;;;23.17;20.77;;;9.90;99.90;;;;;;5055257;28;20455;-88
2021/10/11 08:22:19;;;;;;;30.93;20.20;;;10.10;99.90;;;;;;5056896;28;20436;-87
2021/10/11 08:24:46;;;;;;;25.03;19.90;;;10.10;99.90;;;;;;5067107;28;20455;-88
2021/10/11 08:27:16;;;;;;;24.10;20.20;;;10.00;99.90;;;;;;5057823;28;20443;-88
2021/10/11 08:29:45;;;;;;;21.57;18.97;;;10.00;99.90;;;;;;5055249;28;20472;-88
2021/10/11 08:32:11;;;;;;;23.87;21.30;;;10.00;99.90;;;;;;5074832;28;20454;-87
2021/10/11 08:34:39;;;;;;;25.67;20.93;;;10.10;99.90;;;;;;5074517;28;20484;-85
2021/10/11 08:37:05;;;;;;;23.30;19.37;;;10.30;99.90;;;;;;5059299;28;20452;-87
2021/10/11 08:39:32;;;;;;;21.70;19.40;;;10.30;99.90;;;;;;5055430;28;20460;-87
2021/10/11 08:42:00;;;;;;;27.00;20.63;;;10.30;99.90;;;;;;5055545;28;20453;-88
2021/10/11 08:44:26;;;;;;;22.43;19.83;;;10.30;99.90;;;;;;5057648;28;20444;-88
2021/10/11 08:46:55;;;;;;;25.43;22.27;;;10.50;99.90;;;;;;5059998;28;20440;-86
2021/10/11 08:49:22;;;;;;;25.27;20.43;;;10.70;99.90;;;;;;5072759;28;20452;-87
2021/10/11 08:51:49;;;;;;;24.43;21.13;;;10.80;99.90;;;;;;5073959;28;20429;-88
2021/10/11 08:54:16;;;;;;;24.10;20.23;;;10.90;99.90;;;;;;5066244;28;20484;-89
2021/10/11 08:56:43;;;;;;;27.70;20.07;;;11.20;99.90;;;;;;5072413;28;20455;-87
2021/10/11 08:59:12;;;;;;;24.47;18.73;;;11.30;99.90;;;;;;5060277;28;20456;-89
2021/10/11 09:01:39;;;;;;;25.50;21.20;;;11.60;99.90;;;;;;5060311;28;20445;-86
2021/10/11 09:04:17;;;;;;;24.50;20.07;;;11.70;99.90;;;;;;5060475;28;20437;-88
2021/10/11 09:07:01;;;;;;;23.50;20.77;;;11.80;99.90;;;;;;5059743;28;20437;-88
2021/10/11 09:09:28;;;;;;;24.20;18.47;;;12.10;99.90;;;;;;5057445;28;20465;-88
2021/10/11 09:11:54;;;;;;;23.27;20.50;;;12.20;99.90;;;;;;5057232;28;20436;-88
2021/10/11 09:14:22;;;;;;;25.10;20.83;;;12.20;99.90;;;;;;5056615;28;20472;-87
2021/10/11 09:17:02;;;;;;;23.80;18.77;;;12.60;99.80;;;;;;5059780;28;21082;-87
2021/10/11 09:19:35;;;;;;;26.10;18.57;;;12.90;99.10;;;;;;5058518;28;20498;-88
2021/10/11 09:22:02;;;;;;;20.20;18.20;;;13.20;98.10;;;;;;5059273;28;20445;-87
2021/10/11 09:24:30;;;;;;;22.47;18.40;;;13.20;97.50;;;;;;5057639;28;20964;-86
2021/10/11 09:26:59;;;;;;;21.33;19.10;;;13.30;97.10;;;;;;5064234;28;20443;-86
2021/10/11 09:29:30;;;;;;;24.07;19.40;;;13.60;96.70;;;;;;5063635;28;20469;-86
2021/10/11 09:32:00;;;;;;;19.33;17.23;;;13.80;96.20;;;;;;5057537;28;20845;-87
2021/10/11 09:34:27;;;;;;;20.10;18.00;;;14.00;95.60;;;;;;5053512;28;20449;-89
2021/10/11 09:37:00;;;;;;;21.00;18.03;;;14.10;94.80;;;;;;5053995;28;20457;-88
2021/10/11 09:39:35;;;;;;;24.30;17.93;;;14.00;94.80;;;;;;5059376;28;20461;-87
2021/10/11 09:42:02;;;;;;;21.43;19.23;;;14.00;94.40;;;;;;5058020;28;20437;-88
2021/10/11 09:44:29;;;;;;;21.07;18.90;;;13.90;94.80;;;;;;5064514;28;20504;-86
2021/10/11 09:47:03;;;;;;;20.10;18.00;;;14.20;94.60;;;;;;5067358;28;20480;-89
2021/10/11 09:49:30;;;;;;;19.80;17.70;;;14.70;93.70;;;;;;5065086;28;20466;-86
2021/10/11 09:51:59;;;;;;;19.30;17.43;;;16.00;92.80;;;;;;5062686;28;20459;-88
2021/10/11 09:54:26;;;;;;;21.27;18.10;;;17.30;90.30;;;;;;5056240;28;20472;-88
2021/10/11 09:56:59;;;;;;;19.63;17.07;;;18.30;85.60;;;;;;5059792;28;20446;-88
2021/10/11 09:59:27;;;;;;;23.73;18.27;;;19.40;80.10;;;;;;5056949;28;20465;-86
2021/10/11 10:01:54;;;;;;;20.03;18.13;;;20.40;75.00;;;;;;5058577;28;20947;-89
2021/10/11 10:04:25;;;;;;;20.90;18.47;;;21.30;69.80;;;;;;5060763;28;20438;-89
2021/10/11 10:06:55;;;;;;;20.80;18.70;;;23.00;66.80;;;;;;5057681;28;20783;-89
2021/10/11 10:09:26;;;;;;;19.57;17.67;;;22.60;60.20;;;;;;5058932;28;20465;-89
2021/10/11 10:11:52;;;;;;;20.17;18.07;;;23.10;61.50;;;;;;5053484;28;20441;-89
2021/10/11 10:14:21;;;;;;;18.50;16.80;;;25.40;57.20;;;;;;5056364;28;20573;-90
2021/10/11 10:16:52;;;;;;;19.83;17.87;;;26.70;53.70;;;;;;5056777;28;20438;-88
2021/10/11 10:19:20;;;;;;;18.73;17.20;;;26.90;50.30;;;;;;5055511;28;20471;-90
2021/10/11 10:21:47;;;;;;;19.90;17.90;;;27.70;49.30;;;;;;5054885;28;20448;-90
2021/10/11 10:24:35;;;;;;;19.27;17.40;;;28.70;47.30;;;;;;5056025;28;20447;-89
2021/10/11 10:27:06;;;;;;;19.60;18.00;;;29.30;45.10;;;;;;5052418;28;20425;-89
2021/10/11 10:29:43;;;;;;;18.93;17.07;;;29.50;44.10;;;;;;5052422;28;20479;-88
2021/10/11 10:32:11;;;;;;;19.90;16.40;;;28.80;43.20;;;;;;5054874;28;20502;-88
2021/10/11 10:34:38;;;;;;;18.47;16.57;;;27.00;45.90;;;;;;5052749;28;20484;-89
2021/10/11 10:37:09;;;;;;;18.30;16.37;;;26.10;47.70;;;;;;5057283;28;20428;-90
2021/10/11 10:39:43;;;;;;;18.83;17.13;;;27.10;46.60;;;;;;5069917;28;20458;-87
2021/10/11 10:42:21;;;;;;;19.20;17.30;;;28.30;44.50;;;;;;5075522;28;20453;-87
2021/10/11 10:44:48;;;;;;;18.63;16.87;;;28.50;43.70;;;;;;5066430;28;20535;-88
2021/10/11 10:47:17;;;;;;;20.67;18.30;;;28.70;43.10;;;;;;5065821;28;20438;-89
2021/10/11 10:49:47;;;;;;;20.60;18.70;;;28.80;43.60;;;;;;5064633;28;20448;-88
2021/10/11 10:52:19;;;;;;;22.23;20.20;;;29.20;43.30;;;;;;5090022;22;20454;-89
2021/10/11 10:54:49;;;;;;;20.30;18.40;;;29.90;42.50;;;;;;5081457;28;20440;-89
2021/10/11 10:57:24;;;;;;;20.80;19.00;;;30.50;41.60;;;;;;5086895;28;20821;-88
2021/10/11 10:59:52;;;;;;;22.90;20.67;;;30.30;41.10;;;;;;5080902;28;20891;-88
2021/10/11 11:02:35;;;;;;;22.13;19.83;;;28.40;42.10;;;;;;5091546;28;20463;-87
2021/10/11 11:05:17;;;;;;;20.90;19.27;;;27.60;44.50;;;;;;5084204;28;20473;-91
2021/10/11 11:08:03;;;;;;;22.57;20.60;;;27.30;45.30;;;;;;5084813;28;20442;-91
2021/10/11 11:10:44;;;;;;;21.40;19.20;;;27.00;46.00;;;;;;5109226;27;20458;-90
2021/10/11 11:17:16;;;;;;;;;;;;;;;;;;;;;
2021/10/11 11:23:36;;;;;;;20.90;19.00;;;24.70;49.60;;;;;;4940658;28;20495;-91
2021/10/11 11:34:02;;;;;;;;;;;;;;;;;;;;;
2021/10/11 11:40:33;;;;;;;20.47;18.47;;;26.10;49.20;;;;;;4953264;28;20463;-91
2021/10/11 11:43:53;;;;;;;19.70;17.73;;;27.80;46.30;;;;;;4989482;28;20464;-90
2021/10/11 11:46:32;;;;;;;19.47;17.47;;;28.10;44.10;;;;;;5068109;28;20491;-90
2021/10/11 12:06:32;;;;;;;18.77;16.90;;;30.30;41.70;;;;;;4980704;28;20482;-93
2021/10/11 12:30:13;;;;;;;18.93;17.20;;;27.20;42.20;;;;;;4941516;29;21005;-91
2021/10/11 12:33:41;;;;;;;18.83;17.27;;;25.20;45.80;;;;;;4968316;29;20504;-91
2021/10/11 12:36:15;;;;;;;19.13;17.47;;;24.80;47.20;;;;;;4968071;28;20461;-91
2021/10/11 12:39:32;;;;;;;18.47;16.50;;;23.30;48.80;;;;;;5001975;28;20472;-90
2021/10/11 12:54:32;;;;;;;19.20;17.00;;;23.10;50.90;;;;;;5040275;28;20474;-91
2021/10/11 12:57:18;;;;;;;16.77;15.07;;;23.70;51.20;;;;;;5050050;28;20449;-89
2021/10/11 13:02:58;;;;;;;21.10;18.47;;;23.80;50.30;;;;;;5038881;28;20521;-90
2021/10/11 13:11:47;;;;;;;16.53;14.97;;;23.70;51.20;;;;;;5034691;28;20903;-90
2021/10/11 13:15:06;;;;;;;;;;;;;;;;;;;;;
2021/10/11 13:17:33;;;;;;;18.83;16.80;;;23.30;51.20;;;;;;5033999;28;20545;-86
2021/10/11 13:20:00;;;;;;;17.43;15.63;;;22.60;52.80;;;;;;5029813;28;20822;-82
2021/10/11 13:22:28;;;;;;;20.00;18.07;;;22.00;54.10;;;;;;5039303;28;20460;-83
2021/10/11 13:24:55;;;;;;;24.03;21.67;;;21.50;55.20;;;;;;5048151;28;20557;-83
2021/10/11 13:27:21;;;;;;;23.10;20.67;;;21.00;56.10;;;;;;5039127;28;20441;-84
2021/10/11 13:30:26;;;;;;;24.17;21.77;;;20.70;57.30;;;;;;5038471;28;20439;-82
2021/10/11 14:28:37;;;;;;;37.27;31.03;;;16.70;77.30;;;;;;5057288;28;20716;-87
2021/10/11 14:31:21;;;;;;;31.87;28.47;;;16.60;77.90;;;;;;5048244;28;20449;-87
2021/10/11 17:08:06;;;;;;;33.87;28.00;;;14.00;99.90;;;;;;1483837;26;20472;-87
2021/10/11 17:40:41;;;;;;;27.20;24.23;;;13.80;99.90;;;;;;5014796;28;20496;-89
2021/10/11 17:43:44;;;;;;;28.47;22.80;;;13.70;99.90;;;;;;5035773;28;20445;-93
2021/10/11 17:46:21;;;;;;;26.67;21.50;;;13.60;99.90;;;;;;5024122;28;20475;-92
2021/10/11 17:52:30;;;;;;;30.77;21.67;;;13.60;99.90;;;;;;4957106;28;20522;-92
2021/10/11 17:54:58;;;;;;;29.77;26.60;;;13.60;99.90;;;;;;4994059;28;20454;-91
2021/10/11 18:07:39;;;;;;;25.33;22.17;;;13.50;99.90;;;;;;5012207;28;20450;-85
2021/10/11 18:10:08;;;;;;;28.80;24.03;;;13.50;99.90;;;;;;5013830;28;20443;-85
2021/10/11 18:12:36;;;;;;;26.13;23.20;;;13.50;99.90;;;;;;5076904;28;20444;-84
2021/10/11 18:15:03;;;;;;;29.97;24.90;;;13.40;99.90;;;;;;5082781;28;20443;-85
2021/10/11 18:17:30;;;;;;;26.77;22.53;;;13.40;99.90;;;;;;5077309;28;20448;-84
2021/10/11 18:19:57;;;;;;;29.00;25.70;;;13.50;99.90;;;;;;5068905;28;20864;-86
2021/10/11 18:22:24;;;;;;;25.17;22.47;;;13.40;99.90;;;;;;5064289;28;20452;-85